sensor_id;sensor_type;location;lat;lon;timestamp;pressure;altitude;pressure_sealevel;temperature;humidity
76864;BME280;65834;52.364;9.754;2022-12-24T00:02:21;99673.81;;;6.87;89.93
76864;BME280;65834;52.364;9.754;2022-12-24T00:04:51;99674.94;;;6.78;90.04
76864;BME280;65834;52.364;9.754;2022-12-24T00:07:26;99675.03;;;6.70;90.44
76864;BME280;65834;52.364;9.754;2022-12-24T00:09:58;99667.97;;;6.83;90.12
76864;BME280;65834;52.364;9.754;2022-12-24T00:12:28;99673.16;;;6.85;90.02
76864;BME280;65834;52.364;9.754;2022-12-24T00:15:06;99673.53;;;6.82;89.88
76864;BME280;65834;52.364;9.754;2022-12-24T00:17:36;99675.66;;;6.86;89.84
76864;BME280;65834;52.364;9.754;2022-12-24T00:20:07;99667.78;;;6.85;89.66
76864;BME280;65834;52.364;9.754;2022-12-24T00:22:36;99671.03;;;6.80;89.74
76864;BME280;65834;52.364;9.754;2022-12-24T00:25:09;99670.00;;;6.81;89.73
76864;BME280;65834;52.364;9.754;2022-12-24T00:27:38;99671.03;;;6.66;90.34
76864;BME280;65834;52.364;9.754;2022-12-24T00:30:08;99668.25;;;6.74;90.30
76864;BME280;65834;52.364;9.754;2022-12-24T00:32:38;99670.56;;;6.77;90.59
76864;BME280;65834;52.364;9.754;2022-12-24T00:35:08;99676.41;;;6.80;90.23
76864;BME280;65834;52.364;9.754;2022-12-24T00:37:37;99681.22;;;6.85;89.68
76864;BME280;65834;52.364;9.754;2022-12-24T00:40:10;99673.81;;;6.87;89.75
76864;BME280;65834;52.364;9.754;2022-12-24T00:42:39;99677.53;;;6.86;89.76
76864;BME280;65834;52.364;9.754;2022-12-24T00:45:10;99671.50;;;6.84;90.03
76864;BME280;65834;52.364;9.754;2022-12-24T00:47:40;99679.94;;;6.81;89.90
76864;BME280;65834;52.364;9.754;2022-12-24T00:50:10;99681.13;;;6.78;89.96
76864;BME280;65834;52.364;9.754;2022-12-24T00:52:39;99691.16;;;6.70;90.20
76864;BME280;65834;52.364;9.754;2022-12-24T00:55:11;99680.69;;;6.75;90.03
76864;BME280;65834;52.364;9.754;2022-12-24T00:57:41;99685.97;;;6.83;89.58
76864;BME280;65834;52.364;9.754;2022-12-24T01:00:11;99690.03;;;6.79;89.51
76864;BME280;65834;52.364;9.754;2022-12-24T01:02:41;99686.97;;;6.82;89.51
76864;BME280;65834;52.364;9.754;2022-12-24T01:05:11;99684.09;;;6.83;89.80
76864;BME280;65834;52.364;9.754;2022-12-24T01:07:39;99693.38;;;6.81;89.85
76864;BME280;65834;52.364;9.754;2022-12-24T01:10:15;99696.25;;;6.79;89.98
76864;BME280;65834;52.364;9.754;2022-12-24T01:12:45;99707.66;;;6.81;89.63
76864;BME280;65834;52.364;9.754;2022-12-24T01:15:15;99708.66;;;6.80;89.68
76864;BME280;65834;52.364;9.754;2022-12-24T01:17:44;99708.13;;;6.70;90.30
76864;BME280;65834;52.364;9.754;2022-12-24T01:20:15;99719.97;;;6.76;90.21
76864;BME280;65834;52.364;9.754;2022-12-24T01:22:45;99728.69;;;6.78;90.12
76864;BME280;65834;52.364;9.754;2022-12-24T01:25:17;99723.13;;;6.79;90.22
76864;BME280;65834;52.364;9.754;2022-12-24T01:27:46;99728.50;;;6.79;89.90
76864;BME280;65834;52.364;9.754;2022-12-24T01:30:16;99728.13;;;6.82;90.20
76864;BME280;65834;52.364;9.754;2022-12-24T01:32:45;99723.88;;;6.88;90.15
76864;BME280;65834;52.364;9.754;2022-12-24T01:35:15;99720.34;;;6.87;90.16
76864;BME280;65834;52.364;9.754;2022-12-24T01:37:44;99721.72;;;6.83;89.99
76864;BME280;65834;52.364;9.754;2022-12-24T01:40:17;99729.41;;;6.86;89.97
76864;BME280;65834;52.364;9.754;2022-12-24T01:42:59;99729.50;;;6.93;89.89
76864;BME280;65834;52.364;9.754;2022-12-24T01:45:47;99732.56;;;6.90;89.92
76864;BME280;65834;52.364;9.754;2022-12-24T01:48:22;99731.34;;;6.92;90.06
76864;BME280;65834;52.364;9.754;2022-12-24T01:50:56;99726.44;;;6.96;89.80
76864;BME280;65834;52.364;9.754;2022-12-24T01:53:26;99728.03;;;6.90;89.88
76864;BME280;65834;52.364;9.754;2022-12-24T01:55:59;99732.88;;;6.95;89.67
76864;BME280;65834;52.364;9.754;2022-12-24T01:58:30;99731.81;;;6.96;90.00
76864;BME280;65834;52.364;9.754;2022-12-24T02:01:00;99729.88;;;6.90;90.11
76864;BME280;65834;52.364;9.754;2022-12-24T02:03:30;99733.66;;;6.95;90.02
76864;BME280;65834;52.364;9.754;2022-12-24T02:06:00;99729.59;;;6.99;89.91
76864;BME280;65834;52.364;9.754;2022-12-24T02:08:30;99737.19;;;6.96;89.97
76864;BME280;65834;52.364;9.754;2022-12-24T02:11:13;99729.81;;;6.98;90.00
76864;BME280;65834;52.364;9.754;2022-12-24T02:13:45;99733.22;;;7.06;90.11
76864;BME280;65834;52.364;9.754;2022-12-24T02:16:26;99745.28;;;7.11;90.03
76864;BME280;65834;52.364;9.754;2022-12-24T02:19:09;99740.06;;;7.09;90.16
76864;BME280;65834;52.364;9.754;2022-12-24T02:21:54;99745.16;;;7.19;89.96
76864;BME280;65834;52.364;9.754;2022-12-24T02:24:48;99741.91;;;7.23;89.96
76864;BME280;65834;52.364;9.754;2022-12-24T02:27:33;99753.97;;;7.27;89.77
76864;BME280;65834;52.364;9.754;2022-12-24T02:30:11;99753.41;;;7.32;89.87
76864;BME280;65834;52.364;9.754;2022-12-24T02:32:53;99752.00;;;7.36;90.21
76864;BME280;65834;52.364;9.754;2022-12-24T02:35:32;99758.09;;;7.59;90.64
76864;BME280;65834;52.364;9.754;2022-12-24T02:38:07;99756.88;;;7.83;90.72
76864;BME280;65834;52.364;9.754;2022-12-24T02:40:45;99760.59;;;8.03;90.58
76864;BME280;65834;52.364;9.754;2022-12-24T02:43:19;99763.81;;;8.13;90.53
76864;BME280;65834;52.364;9.754;2022-12-24T02:45:57;99759.34;;;8.41;90.32
76864;BME280;65834;52.364;9.754;2022-12-24T02:48:29;99765.13;;;8.38;90.60
76864;BME280;65834;52.364;9.754;2022-12-24T02:51:02;99758.16;;;8.50;90.54
76864;BME280;65834;52.364;9.754;2022-12-24T02:53:33;99757.19;;;8.58;90.28
76864;BME280;65834;52.364;9.754;2022-12-24T02:56:17;99773.00;;;8.67;89.61
76864;BME280;65834;52.364;9.754;2022-12-24T02:59:01;99772.59;;;8.64;89.80
76864;BME280;65834;52.364;9.754;2022-12-24T03:01:45;99761.81;;;8.64;89.51
76864;BME280;65834;52.364;9.754;2022-12-24T03:04:24;99765.81;;;8.75;88.76
76864;BME280;65834;52.364;9.754;2022-12-24T03:07:15;99777.03;;;8.78;88.55
76864;BME280;65834;52.364;9.754;2022-12-24T03:09:55;99778.50;;;8.81;88.16
76864;BME280;65834;52.364;9.754;2022-12-24T03:12:27;99781.09;;;8.95;87.02
76864;BME280;65834;52.364;9.754;2022-12-24T03:14:59;99783.16;;;8.93;87.04
76864;BME280;65834;52.364;9.754;2022-12-24T03:17:33;99787.91;;;8.91;87.49
76864;BME280;65834;52.364;9.754;2022-12-24T03:20:08;99790.66;;;8.98;86.76
76864;BME280;65834;52.364;9.754;2022-12-24T03:22:39;99808.44;;;8.92;87.26
76864;BME280;65834;52.364;9.754;2022-12-24T03:25:09;99801.41;;;8.91;87.15
76864;BME280;65834;52.364;9.754;2022-12-24T03:27:39;99809.53;;;8.98;86.66
76864;BME280;65834;52.364;9.754;2022-12-24T03:30:12;99812.03;;;8.99;86.44
76864;BME280;65834;52.364;9.754;2022-12-24T03:32:46;99807.09;;;9.03;86.13
76864;BME280;65834;52.364;9.754;2022-12-24T03:35:16;99817.44;;;8.99;86.15
76864;BME280;65834;52.364;9.754;2022-12-24T03:37:45;99828.22;;;8.99;86.05
76864;BME280;65834;52.364;9.754;2022-12-24T03:40:15;99816.16;;;8.95;86.18
76864;BME280;65834;52.364;9.754;2022-12-24T03:42:44;99832.31;;;8.95;85.84
76864;BME280;65834;52.364;9.754;2022-12-24T03:45:13;99844.00;;;9.02;85.68
76864;BME280;65834;52.364;9.754;2022-12-24T03:47:45;99831.19;;;9.04;85.20
76864;BME280;65834;52.364;9.754;2022-12-24T03:50:15;99846.97;;;9.07;84.97
76864;BME280;65834;52.364;9.754;2022-12-24T03:52:47;99845.28;;;9.06;85.25
76864;BME280;65834;52.364;9.754;2022-12-24T03:55:17;99861.22;;;9.01;85.26
76864;BME280;65834;52.364;9.754;2022-12-24T03:57:46;99847.97;;;9.06;84.83
76864;BME280;65834;52.364;9.754;2022-12-24T04:00:16;99859.44;;;9.15;84.02
76864;BME280;65834;52.364;9.754;2022-12-24T04:02:48;99860.47;;;9.14;84.38
76864;BME280;65834;52.364;9.754;2022-12-24T04:05:19;99881.88;;;9.15;84.17
76864;BME280;65834;52.364;9.754;2022-12-24T04:07:48;99869.16;;;9.09;84.83
76864;BME280;65834;52.364;9.754;2022-12-24T04:10:18;99879.50;;;9.06;84.77
76864;BME280;65834;52.364;9.754;2022-12-24T04:12:47;99885.53;;;9.08;84.71
76864;BME280;65834;52.364;9.754;2022-12-24T04:15:17;99897.31;;;9.00;85.07
76864;BME280;65834;52.364;9.754;2022-12-24T04:17:49;99880.47;;;8.98;85.24
76864;BME280;65834;52.364;9.754;2022-12-24T04:20:18;99886.53;;;9.00;85.11
76864;BME280;65834;52.364;9.754;2022-12-24T04:22:48;99894.03;;;9.05;84.64
76864;BME280;65834;52.364;9.754;2022-12-24T04:25:17;99899.34;;;8.98;84.68
76864;BME280;65834;52.364;9.754;2022-12-24T04:27:46;99891.72;;;9.02;84.32
76864;BME280;65834;52.364;9.754;2022-12-24T04:30:16;99908.56;;;9.04;84.21
76864;BME280;65834;52.364;9.754;2022-12-24T04:32:45;99900.47;;;9.04;83.76
76864;BME280;65834;52.364;9.754;2022-12-24T04:35:17;99910.66;;;9.08;83.14
76864;BME280;65834;52.364;9.754;2022-12-24T04:37:47;99915.03;;;9.09;83.41
76864;BME280;65834;52.364;9.754;2022-12-24T04:40:16;99908.16;;;9.07;83.06
76864;BME280;65834;52.364;9.754;2022-12-24T04:42:46;99925.59;;;9.04;83.22
76864;BME280;65834;52.364;9.754;2022-12-24T04:45:16;99927.00;;;9.00;83.26
76864;BME280;65834;52.364;9.754;2022-12-24T04:47:45;99922.56;;;8.93;83.03
76864;BME280;65834;52.364;9.754;2022-12-24T04:50:17;99919.53;;;9.02;82.30
76864;BME280;65834;52.364;9.754;2022-12-24T04:52:47;99929.75;;;9.07;81.94
76864;BME280;65834;52.364;9.754;2022-12-24T04:55:16;99917.97;;;9.14;80.81
76864;BME280;65834;52.364;9.754;2022-12-24T04:57:46;99934.09;;;9.08;81.58
76864;BME280;65834;52.364;9.754;2022-12-24T05:00:19;99934.88;;;9.02;81.78
76864;BME280;65834;52.364;9.754;2022-12-24T05:02:48;99940.47;;;9.00;81.65
76864;BME280;65834;52.364;9.754;2022-12-24T05:05:20;99937.72;;;8.94;82.11
76864;BME280;65834;52.364;9.754;2022-12-24T05:07:50;99947.34;;;9.03;81.49
76864;BME280;65834;52.364;9.754;2022-12-24T05:10:19;99936.09;;;8.99;81.40
76864;BME280;65834;52.364;9.754;2022-12-24T05:12:49;99947.41;;;9.09;80.70
76864;BME280;65834;52.364;9.754;2022-12-24T05:15:18;99956.78;;;9.13;80.39
76864;BME280;65834;52.364;9.754;2022-12-24T05:17:48;99949.66;;;9.06;80.88
76864;BME280;65834;52.364;9.754;2022-12-24T05:20:17;99975.34;;;9.02;81.27
76864;BME280;65834;52.364;9.754;2022-12-24T05:22:49;99971.44;;;9.04;81.24
76864;BME280;65834;52.364;9.754;2022-12-24T05:25:36;99983.03;;;9.05;81.14
76864;BME280;65834;52.364;9.754;2022-12-24T05:28:18;99981.19;;;9.05;81.12
76864;BME280;65834;52.364;9.754;2022-12-24T05:30:48;99973.94;;;9.06;81.32
76864;BME280;65834;52.364;9.754;2022-12-24T05:33:17;99981.97;;;8.99;81.71
76864;BME280;65834;52.364;9.754;2022-12-24T05:35:47;99995.81;;;8.96;82.19
76864;BME280;65834;52.364;9.754;2022-12-24T05:38:19;99996.28;;;9.00;82.46
76864;BME280;65834;52.364;9.754;2022-12-24T05:40:48;100007.25;;;8.98;82.81
76864;BME280;65834;52.364;9.754;2022-12-24T05:43:17;100008.47;;;8.96;83.08
76864;BME280;65834;52.364;9.754;2022-12-24T05:45:47;100009.63;;;8.87;84.54
76864;BME280;65834;52.364;9.754;2022-12-24T05:48:16;100013.53;;;8.84;85.04
76864;BME280;65834;52.364;9.754;2022-12-24T05:50:46;100016.00;;;8.79;85.41
76864;BME280;65834;52.364;9.754;2022-12-24T05:53:15;100007.44;;;8.76;86.00
76864;BME280;65834;52.364;9.754;2022-12-24T05:55:47;100006.66;;;8.60;86.50
76864;BME280;65834;52.364;9.754;2022-12-24T05:58:17;100016.13;;;8.56;86.37
76864;BME280;65834;52.364;9.754;2022-12-24T06:00:46;100012.22;;;8.59;86.20
76864;BME280;65834;52.364;9.754;2022-12-24T06:03:16;100022.53;;;8.55;86.32
76864;BME280;65834;52.364;9.754;2022-12-24T06:05:45;100027.38;;;8.60;86.41
76864;BME280;65834;52.364;9.754;2022-12-24T06:08:14;100032.19;;;8.64;86.17
76864;BME280;65834;52.364;9.754;2022-12-24T06:10:46;100033.69;;;8.67;85.67
76864;BME280;65834;52.364;9.754;2022-12-24T06:13:21;100043.44;;;8.68;85.41
76864;BME280;65834;52.364;9.754;2022-12-24T06:15:53;100041.13;;;8.65;85.66
76864;BME280;65834;52.364;9.754;2022-12-24T06:18:23;100047.72;;;8.62;85.53
76864;BME280;65834;52.364;9.754;2022-12-24T06:20:53;100051.91;;;8.65;85.60
76864;BME280;65834;52.364;9.754;2022-12-24T06:23:24;100048.28;;;8.73;84.71
76864;BME280;65834;52.364;9.754;2022-12-24T06:25:58;100052.72;;;8.65;84.91
76864;BME280;65834;52.364;9.754;2022-12-24T06:28:29;100064.16;;;8.67;84.94
76864;BME280;65834;52.364;9.754;2022-12-24T06:31:00;100069.53;;;8.67;84.89
76864;BME280;65834;52.364;9.754;2022-12-24T06:33:30;100065.19;;;8.66;84.84
76864;BME280;65834;52.364;9.754;2022-12-24T06:36:00;100069.75;;;8.66;84.97
76864;BME280;65834;52.364;9.754;2022-12-24T06:38:29;100064.16;;;8.67;84.29
76864;BME280;65834;52.364;9.754;2022-12-24T06:41:04;100081.84;;;8.70;84.11
76864;BME280;65834;52.364;9.754;2022-12-24T06:43:34;100081.25;;;8.75;82.99
76864;BME280;65834;52.364;9.754;2022-12-24T06:46:04;100080.63;;;8.73;82.76
76864;BME280;65834;52.364;9.754;2022-12-24T06:48:33;100089.81;;;8.78;82.69
76864;BME280;65834;52.364;9.754;2022-12-24T06:51:03;100097.72;;;8.80;82.42
76864;BME280;65834;52.364;9.754;2022-12-24T06:53:32;100089.25;;;8.68;83.06
76864;BME280;65834;52.364;9.754;2022-12-24T06:56:06;100087.91;;;8.57;83.42
76864;BME280;65834;52.364;9.754;2022-12-24T06:58:36;100105.09;;;8.56;82.95
76864;BME280;65834;52.364;9.754;2022-12-24T07:01:08;100095.16;;;8.57;82.68
76864;BME280;65834;52.364;9.754;2022-12-24T07:03:38;100103.31;;;8.63;82.43
76864;BME280;65834;52.364;9.754;2022-12-24T07:06:10;100102.38;;;8.56;82.70
76864;BME280;65834;52.364;9.754;2022-12-24T07:08:42;100107.59;;;8.58;82.06
76864;BME280;65834;52.364;9.754;2022-12-24T07:11:15;100095.16;;;8.57;81.83
76864;BME280;65834;52.364;9.754;2022-12-24T07:13:45;100115.69;;;8.43;82.25
76864;BME280;65834;52.364;9.754;2022-12-24T07:16:14;100127.31;;;8.29;82.98
76864;BME280;65834;52.364;9.754;2022-12-24T07:18:44;100128.97;;;8.30;82.95
76864;BME280;65834;52.364;9.754;2022-12-24T07:21:13;100124.41;;;8.31;82.55
76864;BME280;65834;52.364;9.754;2022-12-24T07:23:43;100126.66;;;8.42;82.13
76864;BME280;65834;52.364;9.754;2022-12-24T07:26:15;100137.16;;;8.51;81.54
76864;BME280;65834;52.364;9.754;2022-12-24T07:28:44;100146.91;;;8.52;81.63
76864;BME280;65834;52.364;9.754;2022-12-24T07:31:14;100150.25;;;8.54;81.31
76864;BME280;65834;52.364;9.754;2022-12-24T07:33:43;100145.78;;;8.61;80.68
76864;BME280;65834;52.364;9.754;2022-12-24T07:36:16;100151.53;;;8.58;81.29
76864;BME280;65834;52.364;9.754;2022-12-24T07:38:47;100150.91;;;8.56;80.79
76864;BME280;65834;52.364;9.754;2022-12-24T07:41:20;100158.78;;;8.43;81.51
76864;BME280;65834;52.364;9.754;2022-12-24T07:43:50;100161.38;;;8.37;81.93
76864;BME280;65834;52.364;9.754;2022-12-24T07:46:19;100185.84;;;8.35;81.87
76864;BME280;65834;52.364;9.754;2022-12-24T07:48:49;100184.53;;;8.31;81.91
76864;BME280;65834;52.364;9.754;2022-12-24T07:51:18;100188.06;;;8.32;81.94
76864;BME280;65834;52.364;9.754;2022-12-24T07:53:47;100193.28;;;8.33;82.08
76864;BME280;65834;52.364;9.754;2022-12-24T07:56:20;100205.28;;;8.45;81.49
76864;BME280;65834;52.364;9.754;2022-12-24T07:58:49;100205.44;;;8.44;81.49
76864;BME280;65834;52.364;9.754;2022-12-24T08:01:19;100201.75;;;8.45;81.00
76864;BME280;65834;52.364;9.754;2022-12-24T08:03:48;100206.50;;;8.43;81.28
76864;BME280;65834;52.364;9.754;2022-12-24T08:06:20;100211.22;;;8.41;81.04
76864;BME280;65834;52.364;9.754;2022-12-24T08:08:49;100200.53;;;8.33;81.40
76864;BME280;65834;52.364;9.754;2022-12-24T08:11:21;100203.91;;;8.27;81.47
76864;BME280;65834;52.364;9.754;2022-12-24T08:13:51;100201.75;;;8.22;81.45
76864;BME280;65834;52.364;9.754;2022-12-24T08:16:20;100207.44;;;8.27;81.28
76864;BME280;65834;52.364;9.754;2022-12-24T08:18:50;100210.09;;;8.50;79.30
76864;BME280;65834;52.364;9.754;2022-12-24T08:21:19;100216.34;;;8.50;79.31
76864;BME280;65834;52.364;9.754;2022-12-24T08:23:49;100216.81;;;8.54;79.36
76864;BME280;65834;52.364;9.754;2022-12-24T08:26:18;100226.47;;;8.63;79.00
76864;BME280;65834;52.364;9.754;2022-12-24T08:28:50;100230.94;;;8.70;79.02
76864;BME280;65834;52.364;9.754;2022-12-24T08:31:20;100232.06;;;8.76;78.33
76864;BME280;65834;52.364;9.754;2022-12-24T08:33:50;100232.91;;;8.77;78.81
76864;BME280;65834;52.364;9.754;2022-12-24T08:36:19;100244.06;;;8.74;78.77
76864;BME280;65834;52.364;9.754;2022-12-24T08:38:49;100237.47;;;8.76;79.24
76864;BME280;65834;52.364;9.754;2022-12-24T08:41:18;100253.66;;;8.76;80.15
76864;BME280;65834;52.364;9.754;2022-12-24T08:43:50;100261.91;;;8.75;81.24
76864;BME280;65834;52.364;9.754;2022-12-24T08:46:19;100271.03;;;8.74;82.00
76864;BME280;65834;52.364;9.754;2022-12-24T08:48:49;100273.78;;;8.65;83.02
76864;BME280;65834;52.364;9.754;2022-12-24T08:51:19;100276.59;;;8.57;83.79
76864;BME280;65834;52.364;9.754;2022-12-24T08:53:49;100276.09;;;8.54;84.04
76864;BME280;65834;52.364;9.754;2022-12-24T08:56:18;100278.03;;;8.45;84.50
76864;BME280;65834;52.364;9.754;2022-12-24T08:58:50;100279.69;;;8.46;84.76
76864;BME280;65834;52.364;9.754;2022-12-24T09:01:20;100275.03;;;8.40;84.71
76864;BME280;65834;52.364;9.754;2022-12-24T09:03:49;100277.81;;;8.32;85.15
76864;BME280;65834;52.364;9.754;2022-12-24T09:06:19;100290.50;;;8.24;85.46
76864;BME280;65834;52.364;9.754;2022-12-24T09:08:51;100294.69;;;8.26;85.39
76864;BME280;65834;52.364;9.754;2022-12-24T09:11:21;100292.81;;;8.27;85.37
76864;BME280;65834;52.364;9.754;2022-12-24T09:13:53;100305.28;;;8.28;85.43
76864;BME280;65834;52.364;9.754;2022-12-24T09:16:23;100301.75;;;8.27;85.25
76864;BME280;65834;52.364;9.754;2022-12-24T09:18:52;100307.47;;;8.32;85.47
76864;BME280;65834;52.364;9.754;2022-12-24T09:21:22;100311.16;;;8.31;85.60
76864;BME280;65834;52.364;9.754;2022-12-24T09:23:51;100308.47;;;8.31;85.66
76864;BME280;65834;52.364;9.754;2022-12-24T09:26:23;100313.50;;;8.34;85.69
76864;BME280;65834;52.364;9.754;2022-12-24T09:28:56;100316.19;;;8.34;86.03
76864;BME280;65834;52.364;9.754;2022-12-24T09:31:27;100316.19;;;8.34;85.97
76864;BME280;65834;52.364;9.754;2022-12-24T09:33:57;100333.41;;;8.33;86.01
76864;BME280;65834;52.364;9.754;2022-12-24T09:36:26;100339.59;;;8.34;86.09
76864;BME280;65834;52.364;9.754;2022-12-24T09:38:55;100336.63;;;8.51;85.49
76864;BME280;65834;52.364;9.754;2022-12-24T09:41:34;100347.91;;;8.69;84.81
76864;BME280;65834;52.364;9.754;2022-12-24T09:44:18;100344.13;;;8.79;84.57
76864;BME280;65834;52.364;9.754;2022-12-24T09:46:51;100358.38;;;9.02;83.63
76864;BME280;65834;52.364;9.754;2022-12-24T09:49:25;100360.81;;;9.11;83.15
76864;BME280;65834;52.364;9.754;2022-12-24T09:52:00;100366.59;;;9.23;83.15
76864;BME280;65834;52.364;9.754;2022-12-24T09:54:33;100367.34;;;9.32;82.48
76864;BME280;65834;52.364;9.754;2022-12-24T09:57:16;100371.53;;;9.34;82.42
76864;BME280;65834;52.364;9.754;2022-12-24T09:59:51;100372.84;;;9.38;82.33
76864;BME280;65834;52.364;9.754;2022-12-24T10:02:21;100370.97;;;9.39;82.31
76864;BME280;65834;52.364;9.754;2022-12-24T10:04:51;100369.84;;;9.48;81.76
76864;BME280;65834;52.364;9.754;2022-12-24T10:07:29;100372.38;;;9.64;81.08
76864;BME280;65834;52.364;9.754;2022-12-24T10:10:06;100385.09;;;9.85;79.90
76864;BME280;65834;52.364;9.754;2022-12-24T10:12:44;100384.72;;;9.88;79.30
76864;BME280;65834;52.364;9.754;2022-12-24T10:15:24;100395.59;;;9.94;79.33
76864;BME280;65834;52.364;9.754;2022-12-24T10:18:13;100398.09;;;10.10;79.04
76864;BME280;65834;52.364;9.754;2022-12-24T10:20:52;100389.53;;;10.07;78.76
76864;BME280;65834;52.364;9.754;2022-12-24T10:23:27;100401.25;;;10.28;78.25
76864;BME280;65834;52.364;9.754;2022-12-24T10:26:07;100398.00;;;10.18;78.55
76864;BME280;65834;52.364;9.754;2022-12-24T10:28:43;100401.16;;;10.22;77.79
76864;BME280;65834;52.364;9.754;2022-12-24T10:31:18;100404.91;;;10.21;78.21
76864;BME280;65834;52.364;9.754;2022-12-24T10:33:54;100402.72;;;10.31;78.42
76864;BME280;65834;52.364;9.754;2022-12-24T10:36:27;100402.25;;;10.27;77.60
76864;BME280;65834;52.364;9.754;2022-12-24T10:38:57;100399.94;;;10.39;78.16
76864;BME280;65834;52.364;9.754;2022-12-24T10:41:28;100412.09;;;10.14;78.29
76864;BME280;65834;52.364;9.754;2022-12-24T10:43:58;100406.81;;;10.42;77.94
76864;BME280;65834;52.364;9.754;2022-12-24T10:46:35;100404.81;;;10.50;77.21
76864;BME280;65834;52.364;9.754;2022-12-24T10:49:10;100409.97;;;10.66;76.97
76864;BME280;65834;52.364;9.754;2022-12-24T10:51:43;100419.47;;;10.41;77.72
76864;BME280;65834;52.364;9.754;2022-12-24T10:54:16;100421.63;;;10.46;77.05
76864;BME280;65834;52.364;9.754;2022-12-24T10:56:56;100428.63;;;10.40;77.41
76864;BME280;65834;52.364;9.754;2022-12-24T10:59:26;100419.22;;;10.36;77.45
76864;BME280;65834;52.364;9.754;2022-12-24T11:02:00;100423.34;;;10.32;77.91
76864;BME280;65834;52.364;9.754;2022-12-24T11:04:31;100431.69;;;10.52;76.70
76864;BME280;65834;52.364;9.754;2022-12-24T11:07:03;100427.81;;;10.61;77.06
76864;BME280;65834;52.364;9.754;2022-12-24T11:09:34;100441.03;;;10.34;77.11
76864;BME280;65834;52.364;9.754;2022-12-24T11:12:16;100438.03;;;10.44;77.43
76864;BME280;65834;52.364;9.754;2022-12-24T11:14:47;100451.31;;;10.24;77.72
76864;BME280;65834;52.364;9.754;2022-12-24T11:17:22;100448.75;;;10.38;77.45
76864;BME280;65834;52.364;9.754;2022-12-24T11:19:51;100443.13;;;10.18;78.35
76864;BME280;65834;52.364;9.754;2022-12-24T11:22:22;100444.59;;;10.35;78.84
76864;BME280;65834;52.364;9.754;2022-12-24T11:24:57;100450.44;;;10.39;79.15
76864;BME280;65834;52.364;9.754;2022-12-24T11:27:31;100450.50;;;10.24;80.15
76864;BME280;65834;52.364;9.754;2022-12-24T11:30:22;100445.00;;;10.17;79.98
76864;BME280;65834;52.364;9.754;2022-12-24T11:33:20;100447.03;;;10.15;80.36
76864;BME280;65834;52.364;9.754;2022-12-24T11:35:56;100451.13;;;10.11;80.02
76864;BME280;65834;52.364;9.754;2022-12-24T11:38:27;100445.53;;;10.13;80.23
76864;BME280;65834;52.364;9.754;2022-12-24T11:41:01;100440.69;;;10.08;80.01
76864;BME280;65834;52.364;9.754;2022-12-24T11:43:45;100446.84;;;10.02;80.19
76864;BME280;65834;52.364;9.754;2022-12-24T11:46:36;100442.63;;;10.00;81.34
76864;BME280;65834;52.364;9.754;2022-12-24T11:49:22;100449.53;;;9.88;81.53
76864;BME280;65834;52.364;9.754;2022-12-24T11:52:12;100443.69;;;9.99;81.43
76864;BME280;65834;52.364;9.754;2022-12-24T11:55:01;100444.41;;;10.37;80.79
76864;BME280;65834;52.364;9.754;2022-12-24T11:57:49;100441.13;;;10.41;79.62
76864;BME280;65834;52.364;9.754;2022-12-24T12:00:20;100436.13;;;10.09;80.51
76864;BME280;65834;52.364;9.754;2022-12-24T12:02:50;100439.09;;;10.28;80.08
76864;BME280;65834;52.364;9.754;2022-12-24T12:05:25;100440.31;;;9.97;79.82
76864;BME280;65834;52.364;9.754;2022-12-24T12:08:01;100447.53;;;9.75;80.89
76864;BME280;65834;52.364;9.754;2022-12-24T12:10:36;100454.13;;;9.72;81.03
76864;BME280;65834;52.364;9.754;2022-12-24T12:13:10;100459.34;;;9.74;81.17
76864;BME280;65834;52.364;9.754;2022-12-24T12:15:46;100446.84;;;9.73;81.37
76864;BME280;65834;52.364;9.754;2022-12-24T12:18:21;100459.72;;;9.56;82.22
76864;BME280;65834;52.364;9.754;2022-12-24T12:20:59;100461.31;;;9.65;82.50
76864;BME280;65834;52.364;9.754;2022-12-24T12:23:33;100459.63;;;9.64;82.46
76864;BME280;65834;52.364;9.754;2022-12-24T12:26:07;100462.31;;;9.79;81.01
76864;BME280;65834;52.364;9.754;2022-12-24T12:28:43;100467.19;;;9.69;81.73
76864;BME280;65834;52.364;9.754;2022-12-24T12:31:20;100469.88;;;9.69;81.76
76864;BME280;65834;52.364;9.754;2022-12-24T12:33:54;100468.19;;;10.12;80.28
76864;BME280;65834;52.364;9.754;2022-12-24T12:36:31;100477.56;;;10.45;79.51
76864;BME280;65834;52.364;9.754;2022-12-24T12:39:02;100480.84;;;9.97;80.33
76864;BME280;65834;52.364;9.754;2022-12-24T12:41:44;100484.41;;;9.82;81.42
76864;BME280;65834;52.364;9.754;2022-12-24T12:44:33;100487.28;;;9.96;81.64
76864;BME280;65834;52.364;9.754;2022-12-24T12:47:27;100479.34;;;10.38;81.02
76864;BME280;65834;52.364;9.754;2022-12-24T12:50:05;100485.97;;;10.71;79.90
76864;BME280;65834;52.364;9.754;2022-12-24T12:52:57;100482.31;;;10.79;79.06
76864;BME280;65834;52.364;9.754;2022-12-24T12:55:39;100486.25;;;10.76;79.95
76864;BME280;65834;52.364;9.754;2022-12-24T12:58:17;100478.22;;;11.11;79.50
76864;BME280;65834;52.364;9.754;2022-12-24T13:00:52;100478.59;;;11.01;79.92
76864;BME280;65834;52.364;9.754;2022-12-24T13:06:45;100485.19;;;11.20;79.48
76864;BME280;65834;52.364;9.754;2022-12-24T13:15:31;100492.22;;;10.93;80.08
76864;BME280;65834;52.364;9.754;2022-12-24T13:18:20;100489.66;;;10.85;80.52
76864;BME280;65834;52.364;9.754;2022-12-24T13:20:53;100497.84;;;11.13;79.28
76864;BME280;65834;52.364;9.754;2022-12-24T13:23:25;100487.03;;;11.13;78.79
76864;BME280;65834;52.364;9.754;2022-12-24T13:25:58;100490.53;;;10.71;79.25
76864;BME280;65834;52.364;9.754;2022-12-24T13:28:32;100497.19;;;11.32;78.11
76864;BME280;65834;52.364;9.754;2022-12-24T13:31:27;100496.16;;;11.12;77.67
76864;BME280;65834;52.364;9.754;2022-12-24T13:34:01;100506.53;;;10.87;77.90
76864;BME280;65834;52.364;9.754;2022-12-24T13:37:00;100505.03;;;10.63;78.25
76864;BME280;65834;52.364;9.754;2022-12-24T13:40:06;100507.59;;;10.71;78.70
76864;BME280;65834;52.364;9.754;2022-12-24T13:43:06;100573.53;;;10.20;80.13
76864;BME280;65834;52.364;9.754;2022-12-24T13:45:42;100565.25;;;9.01;82.25